createdAt,value
2019-03-09T00:03:04.147Z,7.81
2019-03-09T00:08:09.482Z,7.62
2019-03-09T00:13:14.891Z,7.81
2019-03-09T00:18:19.254Z,7.82
2019-03-09T00:23:43.318Z,7.88
2019-03-09T00:28:49.367Z,8.02
2019-03-09T00:33:53.844Z,8.20
2019-03-09T00:38:58.253Z,8.25
2019-03-09T00:44:02.978Z,8.24
2019-03-09T00:49:07.323Z,8.33
2019-03-09T00:54:11.690Z,8.27
2019-03-09T00:59:16.030Z,8.24
2019-03-09T01:04:20.364Z,8.40
2019-03-09T01:09:24.772Z,8.43
2019-03-09T01:14:29.221Z,8.47
2019-03-09T01:19:33.567Z,8.52
2019-03-09T01:24:38.043Z,8.56
2019-03-09T01:29:42.491Z,8.50
2019-03-09T01:34:46.952Z,8.37
2019-03-09T01:39:51.351Z,8.41
2019-03-09T01:44:55.714Z,8.50
2019-03-09T01:50:00.337Z,8.33
2019-03-09T01:55:07.893Z,8.30
2019-03-09T02:00:20.181Z,8.37
2019-03-09T02:05:24.704Z,8.35
2019-03-09T02:10:29.249Z,8.40
2019-03-09T02:15:33.631Z,8.38
2019-03-09T02:20:37.969Z,8.43
2019-03-09T02:25:43.426Z,8.38
2019-03-09T02:30:47.782Z,8.45
2019-03-09T02:35:52.219Z,8.51
2019-03-09T02:40:56.583Z,8.40
2019-03-09T02:46:00.940Z,8.46
2019-03-09T02:51:05.272Z,8.38
2019-03-09T02:56:09.748Z,8.42
2019-03-09T03:01:18.726Z,8.37
2019-03-09T03:06:23.084Z,8.31
2019-03-09T03:11:29.145Z,8.32
2019-03-09T03:16:33.504Z,8.45
2019-03-09T03:21:38.008Z,8.47
2019-03-09T03:26:42.358Z,8.33
2019-03-09T03:31:47.593Z,7.85
2019-03-09T03:36:51.965Z,8.12
2019-03-09T03:41:56.299Z,7.91
2019-03-09T03:47:00.643Z,7.99
2019-03-09T03:52:05.010Z,8.11
2019-03-09T03:57:09.569Z,8.15
2019-03-09T04:02:14.009Z,7.93
2019-03-09T04:07:18.444Z,8.08
2019-03-09T04:12:22.939Z,8.01
2019-03-09T04:17:27.327Z,8.07
2019-03-09T04:22:31.679Z,8.08
2019-03-09T04:27:36.062Z,7.87
2019-03-09T04:32:40.462Z,8.12
2019-03-09T04:37:44.850Z,8.36
2019-03-09T04:42:49.310Z,8.34
2019-03-09T04:47:53.655Z,8.28
2019-03-09T04:52:58.101Z,8.29
2019-03-09T04:58:02.437Z,8.36
2019-03-09T05:03:06.814Z,8.44
2019-03-09T05:08:14.331Z,8.43
2019-03-09T05:13:33.903Z,8.50
2019-03-09T05:18:38.259Z,8.54
2019-03-09T05:23:42.604Z,8.58
2019-03-09T05:28:46.961Z,8.60
2019-03-09T05:33:51.317Z,8.62
2019-03-09T05:38:55.689Z,8.71
2019-03-09T05:44:00.024Z,8.73
2019-03-09T05:49:04.405Z,8.76
2019-03-09T05:54:08.752Z,8.76
2019-03-09T05:59:13.108Z,8.84
2019-03-09T06:04:17.444Z,8.80
2019-03-09T06:09:21.897Z,8.86
2019-03-09T06:14:26.242Z,8.67
2019-03-09T06:19:30.579Z,8.49
2019-03-09T06:24:35.001Z,8.47
2019-03-09T06:29:39.417Z,8.33
2019-03-09T06:34:43.854Z,8.43
2019-03-09T06:39:48.244Z,8.21
2019-03-09T06:44:52.605Z,8.18
2019-03-09T06:49:57.013Z,8.13
2019-03-09T06:55:01.448Z,8.10
2019-03-09T07:00:33.851Z,8.10
2019-03-09T07:05:38.230Z,8.23
2019-03-09T07:10:42.604Z,8.18
2019-03-09T07:15:46.955Z,8.09
2019-03-09T07:20:51.300Z,7.93
2019-03-09T07:25:55.690Z,7.82
2019-03-09T07:31:00.122Z,7.91
2019-03-09T07:36:04.457Z,7.79
2019-03-09T07:41:08.870Z,7.70
2019-03-09T07:46:13.238Z,7.67
2019-03-09T07:51:17.581Z,7.84
2019-03-09T07:56:21.914Z,7.82
2019-03-09T08:01:26.335Z,8.02
2019-03-09T08:06:30.706Z,7.87
2019-03-09T08:11:35.095Z,8.22
2019-03-09T08:16:39.447Z,8.22
2019-03-09T08:21:43.867Z,8.39
2019-03-09T08:26:50.060Z,8.79
2019-03-09T08:31:55.473Z,8.77
2019-03-09T08:36:59.990Z,9.19
2019-03-09T08:42:04.424Z,10.22
2019-03-09T08:47:08.808Z,9.87
2019-03-09T08:52:13.192Z,9.96
2019-03-09T08:57:17.535Z,9.90
2019-03-09T09:02:23.031Z,10.05
2019-03-09T09:07:28.729Z,9.94
2019-03-09T09:12:33.189Z,10.29
2019-03-09T09:17:37.623Z,10.42
2019-03-09T09:22:42.029Z,10.53
2019-03-09T09:27:46.376Z,10.58
2019-03-09T09:32:50.827Z,10.61
2019-03-09T09:37:55.258Z,10.92
2019-03-09T09:42:59.717Z,10.86
2019-03-09T09:48:04.597Z,11.17
2019-03-09T09:53:08.971Z,11.42
2019-03-09T09:58:13.357Z,11.29
2019-03-09T10:03:17.715Z,11.21
2019-03-09T10:08:22.084Z,11.24
2019-03-09T10:13:26.478Z,11.41
2019-03-09T10:18:31.009Z,11.54
2019-03-09T10:23:35.495Z,11.52
2019-03-09T10:28:39.900Z,11.62
2019-03-09T10:33:44.230Z,11.65
2019-03-09T10:38:48.627Z,11.78
2019-03-09T10:43:52.969Z,11.75
2019-03-09T10:48:57.341Z,11.94
2019-03-09T10:54:01.730Z,11.93
2019-03-09T10:59:07.625Z,12.08
2019-03-09T11:04:12.011Z,12.11
2019-03-09T11:09:16.366Z,12.24
2019-03-09T11:14:20.702Z,12.24
2019-03-09T11:19:25.106Z,12.10
2019-03-09T11:24:29.475Z,12.11
2019-03-09T11:29:33.836Z,12.19
2019-03-09T11:34:38.272Z,12.41
2019-03-09T11:39:42.646Z,12.14
2019-03-09T11:44:46.969Z,12.20
2019-03-09T11:49:51.333Z,12.58
2019-03-09T11:54:55.674Z,12.42
2019-03-09T12:00:00.002Z,12.39
2019-03-09T12:05:05.724Z,12.48
2019-03-09T12:10:11.127Z,12.73
2019-03-09T12:15:16.748Z,13.31
2019-03-09T12:20:22.717Z,13.18
2019-03-09T12:25:27.218Z,12.76
2019-03-09T12:30:31.608Z,12.84
2019-03-09T12:35:35.979Z,12.63
2019-03-09T12:40:40.314Z,12.61
2019-03-09T12:45:44.674Z,12.13
2019-03-09T12:50:49.073Z,11.31
2019-03-09T12:55:53.443Z,11.39
2019-03-09T13:00:57.888Z,11.36
2019-03-09T13:06:02.239Z,11.26
2019-03-09T13:11:06.683Z,11.27
2019-03-09T13:16:12.136Z,10.98
2019-03-09T13:21:16.496Z,11.21
2019-03-09T13:26:20.864Z,11.32
2019-03-09T13:31:25.280Z,11.19
2019-03-09T13:36:29.674Z,11.14
2019-03-09T13:41:34.105Z,11.24
2019-03-09T13:46:38.506Z,11.28
2019-03-09T13:51:42.885Z,11.03
2019-03-09T13:56:47.248Z,11.19
2019-03-09T14:01:51.621Z,11.14
2019-03-09T14:06:56.037Z,11.16
2019-03-09T14:12:01.470Z,11.22
2019-03-09T14:17:05.891Z,11.23
2019-03-09T14:22:10.282Z,11.37
2019-03-09T14:27:15.291Z,11.46
2019-03-09T14:32:19.758Z,11.50
2019-03-09T14:37:24.104Z,11.26
2019-03-09T14:42:28.455Z,11.04
2019-03-09T14:47:32.826Z,11.19
2019-03-09T14:52:37.198Z,11.42
2019-03-09T14:57:41.822Z,11.29
2019-03-09T15:02:46.182Z,11.09
2019-03-09T15:07:50.647Z,10.98
2019-03-09T15:12:54.993Z,11.11
2019-03-09T15:17:59.570Z,11.25
2019-03-09T15:23:03.932Z,11.30
2019-03-09T15:28:08.409Z,11.36
2019-03-09T15:33:12.784Z,11.37
2019-03-09T15:38:17.156Z,11.54
2019-03-09T15:43:21.508Z,11.42
2019-03-09T15:48:25.911Z,11.54
2019-03-09T15:53:30.363Z,11.50
2019-03-09T15:58:37.123Z,11.57
2019-03-09T16:03:40.942Z,11.60
2019-03-09T16:08:45.351Z,11.68
2019-03-09T16:13:49.681Z,11.75
2019-03-09T16:18:54.060Z,12.96
2019-03-09T16:23:58.414Z,12.64
2019-03-09T16:29:02.867Z,11.63
2019-03-09T16:34:07.368Z,11.59
2019-03-09T16:39:13.436Z,11.45
2019-03-09T16:44:18.059Z,11.33
2019-03-09T16:49:22.431Z,11.18
2019-03-09T16:54:26.873Z,11.10
2019-03-09T16:59:31.260Z,11.04
2019-03-09T17:04:35.661Z,11.09
2019-03-09T17:09:41.203Z,10.99
2019-03-09T17:14:45.606Z,11.03
2019-03-09T17:19:49.975Z,11.06
2019-03-09T17:24:54.346Z,11.05
2019-03-09T17:29:58.877Z,11.06
2019-03-09T17:35:03.293Z,11.01
2019-03-09T17:40:10.319Z,11.13
2019-03-09T17:45:20.543Z,11.09
2019-03-09T17:50:25.304Z,11.11
2019-03-09T17:55:29.648Z,11.15
2019-03-09T18:00:42.561Z,11.14
2019-03-09T18:05:42.012Z,11.10
2019-03-09T18:10:52.344Z,11.02
2019-03-09T18:15:56.703Z,11.06
2019-03-09T18:21:01.068Z,11.09
2019-03-09T18:26:05.497Z,10.97
2019-03-09T18:31:09.900Z,10.83
2019-03-09T18:36:14.443Z,10.84
2019-03-09T18:41:18.862Z,10.86
2019-03-09T18:46:23.239Z,10.83
2019-03-09T18:51:27.595Z,10.58
2019-03-09T18:56:32.045Z,10.32
2019-03-09T19:01:36.468Z,10.39
2019-03-09T19:06:40.833Z,10.11
2019-03-09T19:11:45.205Z,9.83
2019-03-09T19:16:49.564Z,9.15
2019-03-09T19:21:54.016Z,9.02
2019-03-09T19:26:58.374Z,9.02
2019-03-09T19:32:03.849Z,9.00
2019-03-09T19:37:08.189Z,8.96
2019-03-09T19:42:12.545Z,9.22
2019-03-09T19:47:17.981Z,9.69
2019-03-09T19:52:22.477Z,9.40
2019-03-09T19:57:26.897Z,9.34
2019-03-09T20:02:31.244Z,9.35
2019-03-09T20:07:35.699Z,9.25
2019-03-09T20:12:40.141Z,9.19
2019-03-09T20:17:45.829Z,9.23
2019-03-09T20:22:50.414Z,9.26
2019-03-09T20:27:54.846Z,9.09
2019-03-09T20:32:59.266Z,9.06
2019-03-09T20:38:03.785Z,9.04
2019-03-09T20:43:08.321Z,8.94
2019-03-09T20:48:12.748Z,8.92
2019-03-09T20:53:17.127Z,8.84
2019-03-09T20:58:21.545Z,8.84
2019-03-09T21:03:26.001Z,8.90
2019-03-09T21:08:30.357Z,8.84
2019-03-09T21:13:34.733Z,8.75
2019-03-09T21:18:39.108Z,8.68
2019-03-09T21:23:43.499Z,8.65
2019-03-09T21:28:48.838Z,8.46
2019-03-09T21:33:53.227Z,8.58
2019-03-09T21:38:57.638Z,8.34
2019-03-09T21:44:02.051Z,8.36
2019-03-09T21:49:06.521Z,8.43
2019-03-09T21:54:10.864Z,8.34
2019-03-09T21:59:15.233Z,7.99
2019-03-09T22:04:19.620Z,8.02
2019-03-09T22:09:23.999Z,7.89
2019-03-09T22:14:28.436Z,7.96
2019-03-09T22:19:32.817Z,7.85
2019-03-09T22:24:37.182Z,7.96
2019-03-09T22:29:41.884Z,8.00
2019-03-09T22:34:47.153Z,7.66
2019-03-09T22:39:51.687Z,7.59
2019-03-09T22:44:56.090Z,7.60
2019-03-09T22:50:00.479Z,7.41
2019-03-09T22:55:05.373Z,7.47
2019-03-09T23:00:31.237Z,7.46
2019-03-09T23:05:37.213Z,7.50
2019-03-09T23:10:41.560Z,7.40
2019-03-09T23:15:46.052Z,7.45
2019-03-09T23:20:51.457Z,7.31
2019-03-09T23:25:55.795Z,7.41
2019-03-09T23:31:00.210Z,7.28
2019-03-09T23:36:04.596Z,7.33
2019-03-09T23:41:08.936Z,7.34
2019-03-09T23:46:13.269Z,7.36
2019-03-09T23:51:17.669Z,7.29
2019-03-09T23:56:22.050Z,7.15
